Terminal Aerodrome Forecast
Issued by NWS

Home | Current Version | Previous Version | Text Only | Print | Product List | Glossary On
Versions: 1 2 3 4 5 6 7 8 9 10 11 12 13 14 15 16 17 18 19 20 21 22 23 24 25 26 27 28 29 30 31 32 33 34 35 36 37 38
000
FTUS45 KGJT 222340
TAFASE
TAF
KASE 222340Z 2300/2324 19014G23KT P6SM VCSH BKN060 WS020/23040KT
      TEMPO 2300/2304 5SM -RA OVC050
     FM230400 17008KT P6SM VCSH BKN050 WS020/23040KT
     FM231000 17008KT 4SM -SN BKN040 WS020/22030KT
     FM231500 34012KT 2SM -SN OVC035
     FM232100 31012G20KT P6SM VCSH BKN030=

USA.gov is the U.S. government's official web portal to all federal, state and local government web resources and services.